Time;durP1;ratioP1;P1;durP2;ratioP2;P2;SDS_P1;SDS_P2;PMS_P1;PMS_P2;Temp;Humidity;BMP_temperature;BMP_pressure;BME280_temperature;BME280_humidity;BME280_pressure;Samples;Min_cycle;Max_cycle;Signal;HPM_P1;HPM_P2
2022/03/01 00:01:16;;;;;;;;;4.40;4.40;;;;;;;;5220023;28;8821;-73
2022/03/01 00:03:47;;;;;;;;;1.40;1.40;;;;;;;;5230899;28;8787;-73
2022/03/01 00:06:18;;;;;;;;;2.00;2.00;;;;;;;;5247740;28;8800;-74
2022/03/01 00:08:49;;;;;;;;;1.00;1.00;;;;;;;;5248224;28;8895;-73
2022/03/01 00:11:21;;;;;;;;;3.50;3.50;;;;;;;;5247961;28;8787;-74
2022/03/01 00:14:11;;;;;;;;;3.00;3.00;;;;;;;;5233566;28;11080;-74
2022/03/01 00:16:42;;;;;;;;;1.40;1.40;;;;;;;;5248442;28;8771;-74
2022/03/01 00:19:13;;;;;;;;;3.00;3.00;;;;;;;;5230629;28;9501;-74
2022/03/01 00:21:44;;;;;;;;;2.60;2.60;;;;;;;;5226936;28;8833;-77
2022/03/01 00:24:15;;;;;;;;;3.00;3.00;;;;;;;;5226626;28;9572;-77
2022/03/01 00:26:47;;;;;;;;;3.40;3.40;;;;;;;;5210203;28;8788;-77
2022/03/01 00:29:18;;;;;;;;;1.80;1.80;;;;;;;;5209897;28;8766;-75
2022/03/01 00:31:49;;;;;;;;;3.00;3.00;;;;;;;;5209751;28;8786;-75
2022/03/01 00:34:20;;;;;;;;;4.00;4.00;;;;;;;;5227656;28;8766;-76
2022/03/01 00:36:51;;;;;;;;;0.00;0.00;;;;;;;;5227358;28;8870;-76
2022/03/01 00:39:22;;;;;;;;;0.00;0.00;;;;;;;;5201211;28;8828;-75
2022/03/01 00:41:53;;;;;;;;;3.00;3.00;;;;;;;;5205509;28;11457;-75
2022/03/01 00:44:24;;;;;;;;;0.00;0.00;;;;;;;;5188949;28;11387;-75
2022/03/01 00:46:55;;;;;;;;;0.00;0.00;;;;;;;;5205336;28;11539;-74
2022/03/01 00:49:26;;;;;;;;;6.60;6.60;;;;;;;;5205162;28;8812;-78
2022/03/01 00:51:57;;;;;;;;;4.00;4.00;;;;;;;;5205604;28;8785;-78
2022/03/01 00:54:28;;;;;;;;;3.50;3.50;;;;;;;;5189307;28;8784;-79
2022/03/01 00:56:59;;;;;;;;;64.00;52.60;;;;;;;;5188888;28;8777;-78
2022/03/01 00:59:31;;;;;;;;;30.20;28.80;;;;;;;;5222326;28;8770;-78
2022/03/01 01:02:02;;;;;;;;;17.20;16.20;;;;;;;;5225695;28;8778;-76
2022/03/01 01:04:33;;;;;;;;;22.80;20.60;;;;;;;;5225776;28;8797;-76
2022/03/01 01:07:04;;;;;;;;;9.00;9.00;;;;;;;;5225547;28;8890;-76
2022/03/01 01:09:35;;;;;;;;;9.20;9.20;;;;;;;;5209065;28;9631;-76
2022/03/01 01:12:07;;;;;;;;;10.80;10.80;;;;;;;;5208916;28;9485;-76
2022/03/01 01:14:39;;;;;;;;;9.00;9.00;;;;;;;;5225445;28;8805;-79
2022/03/01 01:17:10;;;;;;;;;3.60;3.60;;;;;;;;5201985;28;8812;-79
2022/03/01 01:19:41;;;;;;;;;17.20;15.80;;;;;;;;5204721;28;8788;-78
2022/03/01 01:25:15;;;;;;;;;15.40;15.40;;;;;;;;5200212;28;8962;-79
2022/03/01 01:28:04;;;;;;;;;12.00;12.00;;;;;;;;5204750;28;8962;-78
2022/03/01 01:30:36;;;;;;;;;10.40;9.40;;;;;;;;5205904;28;8822;-79
2022/03/01 01:33:07;;;;;;;;;14.20;14.20;;;;;;;;5205695;28;8947;-79
2022/03/01 01:35:39;;;;;;;;;13.00;13.00;;;;;;;;5208364;28;8849;-78
2022/03/01 01:38:11;;;;;;;;;18.60;18.00;;;;;;;;5225021;28;8801;-78
2022/03/01 01:40:42;;;;;;;;;17.60;17.60;;;;;;;;5207936;28;8945;-81
2022/03/01 01:43:13;;;;;;;;;15.60;15.60;;;;;;;;5225295;28;8894;-76
2022/03/01 01:46:03;;;;;;;;;11.20;11.20;;;;;;;;5224958;28;8930;-77
2022/03/01 01:48:34;;;;;;;;;8.20;8.20;;;;;;;;5208220;28;8955;-83
2022/03/01 01:51:05;;;;;;;;;3.00;3.00;;;;;;;;5208591;28;8911;-79
2022/03/01 01:53:37;;;;;;;;;3.20;3.20;;;;;;;;5206929;28;8798;-79
2022/03/01 01:56:08;;;;;;;;;6.40;6.40;;;;;;;;5225347;28;8814;-78
2022/03/01 01:58:39;;;;;;;;;3.75;3.75;;;;;;;;5225744;28;8982;-75
2022/03/01 02:01:10;;;;;;;;;2.20;2.20;;;;;;;;5223749;28;9667;-76
2022/03/01 02:03:41;;;;;;;;;1.00;1.00;;;;;;;;5225159;28;8777;-76
2022/03/01 02:06:12;;;;;;;;;3.20;3.20;;;;;;;;5223717;28;9303;-76
2022/03/01 02:08:44;;;;;;;;;3.50;3.50;;;;;;;;5207771;28;8825;-76
2022/03/01 02:11:34;;;;;;;;;4.00;4.00;;;;;;;;5225283;28;11434;-78
2022/03/01 02:14:05;;;;;;;;;3.00;1.00;;;;;;;;5199847;28;8977;-76
2022/03/01 02:16:36;;;;;;;;;3.00;3.00;;;;;;;;5203637;28;8918;-76
2022/03/01 02:19:26;;;;;;;;;1.40;1.40;;;;;;;;5203346;28;8792;-76
2022/03/01 02:21:58;;;;;;;;;1.00;1.00;;;;;;;;5204680;28;9506;-76
2022/03/01 02:24:29;;;;;;;;;3.00;3.00;;;;;;;;5203002;28;8801;-78
2022/03/01 02:27:03;;;;;;;;;4.00;4.00;;;;;;;;5210602;28;9600;-79
2022/03/01 02:29:34;;;;;;;;;7.40;7.40;;;;;;;;5207125;28;8820;-77
2022/03/01 02:32:06;;;;;;;;;5.20;4.20;;;;;;;;5219972;28;8812;-75
2022/03/01 02:34:56;;;;;;;;;5.20;5.20;;;;;;;;5248908;28;8805;-77
2022/03/01 02:37:27;;;;;;;;;6.00;6.00;;;;;;;;5190319;28;9548;-75
2022/03/01 02:40:17;;;;;;;;;1.00;1.00;;;;;;;;5224261;28;8774;-78
2022/03/01 02:42:48;;;;;;;;;1.50;1.50;;;;;;;;5224311;28;8802;-76
2022/03/01 02:45:19;;;;;;;;;4.00;4.00;;;;;;;;5200856;28;8888;-76
2022/03/01 02:48:09;;;;;;;;;1.00;1.00;;;;;;;;5210047;28;9518;-76
2022/03/01 02:50:40;;;;;;;;;4.00;4.00;;;;;;;;5207275;28;9521;-75
2022/03/01 02:53:11;;;;;;;;;1.00;1.00;;;;;;;;5194826;28;8852;-75
2022/03/01 02:55:42;;;;;;;;;0.40;0.40;;;;;;;;5227981;28;8951;-75
2022/03/01 02:58:13;;;;;;;;;1.00;1.00;;;;;;;;5250284;28;8799;-75
2022/03/01 03:00:44;;;;;;;;;3.00;3.00;;;;;;;;5232346;28;10391;-74
2022/03/01 03:03:15;;;;;;;;;6.80;6.80;;;;;;;;5232080;28;8779;-75
2022/03/01 03:05:46;;;;;;;;;13.80;13.80;;;;;;;;5248773;28;9642;-78
2022/03/01 03:08:17;;;;;;;;;18.80;18.80;;;;;;;;5248618;28;8807;-78
2022/03/01 03:10:49;;;;;;;;;22.80;22.80;;;;;;;;5227323;28;8792;-77
2022/03/01 03:13:20;;;;;;;;;31.20;24.60;;;;;;;;5233799;28;8825;-76
2022/03/01 03:15:52;;;;;;;;;8.00;7.40;;;;;;;;5239581;28;8786;-77
2022/03/01 03:18:23;;;;;;;;;14.20;14.20;;;;;;;;5246701;28;8835;-76
2022/03/01 03:20:54;;;;;;;;;9.00;9.00;;;;;;;;5247471;28;8783;-78
2022/03/01 03:23:26;;;;;;;;;7.40;7.00;;;;;;;;5249848;28;8790;-78
2022/03/01 03:25:57;;;;;;;;;12.80;12.20;;;;;;;;5248454;28;8791;-77
2022/03/01 03:28:46;;;;;;;;;9.20;9.00;;;;;;;;5248444;28;8818;-77
2022/03/01 03:31:17;;;;;;;;;6.00;6.00;;;;;;;;5229415;28;8888;-77
2022/03/01 03:34:08;;;;;;;;;13.20;11.40;;;;;;;;5214407;28;8806;-78
2022/03/01 03:36:41;;;;;;;;;16.40;15.60;;;;;;;;5235655;28;8790;-78
2022/03/01 03:39:12;;;;;;;;;7.80;7.00;;;;;;;;5235608;28;8786;-77
2022/03/01 03:41:44;;;;;;;;;20.20;18.80;;;;;;;;5251921;28;8816;-78
2022/03/01 03:44:15;;;;;;;;;26.20;26.20;;;;;;;;5235493;28;8794;-74
2022/03/01 03:46:46;;;;;;;;;31.60;30.60;;;;;;;;5252073;28;8851;-78
2022/03/01 03:49:17;;;;;;;;;41.00;37.50;;;;;;;;5269648;28;9572;-78
2022/03/01 03:52:07;;;;;;;;;38.00;36.00;;;;;;;;5221633;28;9589;-79
2022/03/01 03:54:39;;;;;;;;;22.40;18.60;;;;;;;;5230972;28;8785;-77
2022/03/01 03:57:10;;;;;;;;;36.00;31.00;;;;;;;;5197700;28;8793;-78
2022/03/01 04:00:00;;;;;;;;;69.40;51.60;;;;;;;;5231161;28;8865;-74
2022/03/01 04:02:31;;;;;;;;;60.20;49.80;;;;;;;;5263620;28;8800;-73
2022/03/01 04:05:21;;;;;;;;;32.40;30.00;;;;;;;;5248554;28;8772;-75
2022/03/01 04:07:52;;;;;;;;;29.00;25.80;;;;;;;;5230641;28;8954;-75
2022/03/01 04:10:23;;;;;;;;;24.80;24.80;;;;;;;;5212277;28;8836;-75
2022/03/01 04:12:54;;;;;;;;;18.80;18.20;;;;;;;;5214055;28;8796;-76
2022/03/01 04:15:25;;;;;;;;;30.60;28.00;;;;;;;;5230818;28;8784;-76
2022/03/01 04:17:56;;;;;;;;;28.40;28.40;;;;;;;;5247473;28;8800;-76
2022/03/01 04:20:46;;;;;;;;;18.60;16.80;;;;;;;;5230733;28;8888;-75
2022/03/01 04:23:17;;;;;;;;;17.80;14.80;;;;;;;;5230308;28;8919;-75
2022/03/01 04:25:48;;;;;;;;;18.40;17.20;;;;;;;;5214105;28;9592;-76
2022/03/01 04:28:19;;;;;;;;;21.40;21.40;;;;;;;;5246562;28;8796;-75
2022/03/01 04:30:51;;;;;;;;;16.80;16.80;;;;;;;;5193206;28;8775;-74
2022/03/01 04:33:22;;;;;;;;;22.80;22.80;;;;;;;;5226376;28;8815;-75
2022/03/01 04:35:54;;;;;;;;;5.60;3.60;;;;;;;;5193058;28;8905;-75
2022/03/01 04:38:25;;;;;;;;;14.20;13.80;;;;;;;;5209956;28;8799;-75
2022/03/01 04:41:14;;;;;;;;;17.20;15.80;;;;;;;;5227139;28;8944;-76
2022/03/01 04:43:45;;;;;;;;;28.20;24.60;;;;;;;;5223993;28;8790;-75
2022/03/01 04:46:35;;;;;;;;;17.60;17.60;;;;;;;;5236998;28;8786;-75
2022/03/01 04:49:10;;;;;;;;;21.20;21.20;;;;;;;;5213586;28;8841;-77
2022/03/01 04:51:43;;;;;;;;;31.80;29.40;;;;;;;;5193231;28;9218;-75
2022/03/01 04:54:14;;;;;;;;;27.80;26.60;;;;;;;;5225701;28;9690;-74
2022/03/01 04:56:45;;;;;;;;;20.20;16.80;;;;;;;;5209209;28;8803;-76
2022/03/01 04:59:17;;;;;;;;;10.60;10.60;;;;;;;;5209204;28;8952;-76
2022/03/01 05:01:48;;;;;;;;;12.80;12.80;;;;;;;;5215140;28;8791;-76
2022/03/01 05:04:22;;;;;;;;;17.20;16.60;;;;;;;;5246126;28;8771;-78
2022/03/01 05:06:53;;;;;;;;;29.60;28.80;;;;;;;;5238318;28;8817;-81
2022/03/01 05:09:24;;;;;;;;;25.40;25.40;;;;;;;;5209373;28;8781;-79
2022/03/01 05:11:55;;;;;;;;;17.60;17.60;;;;;;;;5225457;28;8783;-80
2022/03/01 05:14:27;;;;;;;;;18.80;18.00;;;;;;;;5208561;28;8858;-70
2022/03/01 05:16:58;;;;;;;;;8.50;8.50;;;;;;;;5219082;28;8779;-74
2022/03/01 05:19:29;;;;;;;;;15.20;14.60;;;;;;;;5241746;28;11444;-75
2022/03/01 05:22:00;;;;;;;;;11.80;11.80;;;;;;;;5204370;28;8768;-76
2022/03/01 05:24:31;;;;;;;;;10.60;10.60;;;;;;;;5202803;28;9542;-74
2022/03/01 05:27:02;;;;;;;;;13.80;13.80;;;;;;;;5203162;28;8852;-75
2022/03/01 05:29:34;;;;;;;;;18.40;18.40;;;;;;;;5186297;28;8813;-73
2022/03/01 05:32:23;;;;;;;;;16.80;16.80;;;;;;;;5203877;28;8934;-75
2022/03/01 05:34:54;;;;;;;;;25.50;23.50;;;;;;;;5186488;28;8911;-75
2022/03/01 05:37:25;;;;;;;;;11.50;9.75;;;;;;;;5203836;28;8788;-75
2022/03/01 05:39:56;;;;;;;;;18.40;18.40;;;;;;;;5186182;28;8781;-75
2022/03/01 05:42:27;;;;;;;;;34.20;29.80;;;;;;;;5212608;28;8918;-70
2022/03/01 05:45:17;;;;;;;;;54.00;48.00;;;;;;;;5220809;28;8797;-72
2022/03/01 05:47:48;;;;;;;;;63.80;50.20;;;;;;;;5227464;28;8805;-72
2022/03/01 05:50:19;;;;;;;;;23.60;22.00;;;;;;;;5228847;28;9566;-71
2022/03/01 05:52:50;;;;;;;;;21.60;20.40;;;;;;;;5246637;28;8785;-71
2022/03/01 05:55:21;;;;;;;;;23.00;23.00;;;;;;;;5245295;28;8812;-72
2022/03/01 05:57:52;;;;;;;;;20.40;20.00;;;;;;;;5228530;28;8765;-71
2022/03/01 06:00:23;;;;;;;;;25.50;25.00;;;;;;;;5262353;28;8834;-71
2022/03/01 06:02:54;;;;;;;;;73.00;59.00;;;;;;;;5228519;28;11473;-72
2022/03/01 06:05:26;;;;;;;;;54.50;48.00;;;;;;;;5208272;28;8924;-71
2022/03/01 06:07:57;;;;;;;;;85.33;69.33;;;;;;;;5225518;28;8819;-73
2022/03/01 06:10:28;;;;;;;;;83.00;67.33;;;;;;;;5208115;28;8793;-72
2022/03/01 06:12:59;;;;;;;;;80.33;64.67;;;;;;;;5225463;28;11516;-74
2022/03/01 06:15:30;;;;;;;;;91.25;72.50;;;;;;;;5225569;28;11530;-74
2022/03/01 06:18:01;;;;;;;;;70.60;58.60;;;;;;;;5192040;28;8817;-73
2022/03/01 06:20:33;;;;;;;;;85.00;68.00;;;;;;;;5225573;28;8821;-73
2022/03/01 06:23:22;;;;;;;;;76.40;62.40;;;;;;;;5231377;28;8831;-73
2022/03/01 06:25:53;;;;;;;;;71.80;59.20;;;;;;;;5266892;28;8867;-73
2022/03/01 06:28:24;;;;;;;;;59.00;50.50;;;;;;;;5248865;28;8814;-73
2022/03/01 06:30:55;;;;;;;;;77.00;65.75;;;;;;;;5266914;28;9484;-73
2022/03/01 06:33:26;;;;;;;;;127.33;105.00;;;;;;;;5232177;28;8890;-76
2022/03/01 06:35:57;;;;;;;;;107.33;91.33;;;;;;;;5230629;28;9640;-74
2022/03/01 06:38:28;;;;;;;;;109.00;87.50;;;;;;;;5245981;28;9588;-73
2022/03/01 06:40:59;;;;;;;;;90.67;73.00;;;;;;;;5194345;28;8785;-72
2022/03/01 06:43:30;;;;;;;;;98.33;74.33;;;;;;;;5209578;28;8818;-72
2022/03/01 06:46:01;;;;;;;;;99.00;74.67;;;;;;;;5207468;28;11526;-72
2022/03/01 06:48:32;;;;;;;;;61.00;48.20;;;;;;;;5225405;28;8842;-73
2022/03/01 06:51:03;;;;;;;;;60.80;53.00;;;;;;;;5207423;28;8841;-73
2022/03/01 06:53:35;;;;;;;;;59.75;48.50;;;;;;;;5207380;28;8872;-73
2022/03/01 06:56:06;;;;;;;;;37.20;34.80;;;;;;;;5225096;28;10840;-74
2022/03/01 06:58:38;;;;;;;;;22.60;22.40;;;;;;;;5207348;28;9556;-74
2022/03/01 07:01:09;;;;;;;;;27.60;26.60;;;;;;;;5195005;28;8788;-74
2022/03/01 07:03:42;;;;;;;;;41.80;38.40;;;;;;;;5246350;28;8791;-74
2022/03/01 07:06:13;;;;;;;;;23.80;23.60;;;;;;;;5227952;28;8796;-74
2022/03/01 07:08:44;;;;;;;;;23.40;22.80;;;;;;;;5244635;28;8829;-74
2022/03/01 07:11:15;;;;;;;;;24.00;22.60;;;;;;;;5228118;28;8773;-74
2022/03/01 07:13:47;;;;;;;;;18.60;17.80;;;;;;;;5243926;28;8816;-72
2022/03/01 07:16:18;;;;;;;;;10.40;10.40;;;;;;;;5228019;28;8777;-74
2022/03/01 07:18:49;;;;;;;;;14.20;14.20;;;;;;;;5227988;28;8768;-75
2022/03/01 07:21:20;;;;;;;;;16.00;15.00;;;;;;;;5246198;28;8795;-73
2022/03/01 07:23:51;;;;;;;;;7.40;7.40;;;;;;;;5207288;28;11598;-73
2022/03/01 07:26:22;;;;;;;;;6.00;6.00;;;;;;;;5207305;28;9457;-73
2022/03/01 07:29:11;;;;;;;;;10.00;10.00;;;;;;;;5209875;28;11444;-73
2022/03/01 07:31:42;;;;;;;;;5.00;5.00;;;;;;;;5207158;28;8786;-74
2022/03/01 07:34:32;;;;;;;;;9.40;9.40;;;;;;;;5207048;28;8783;-75
2022/03/01 07:37:04;;;;;;;;;10.00;10.00;;;;;;;;5190676;28;8791;-74
2022/03/01 07:39:35;;;;;;;;;4.40;4.40;;;;;;;;5219838;28;8789;-74
2022/03/01 07:42:24;;;;;;;;;4.00;4.00;;;;;;;;5249328;28;9565;-74
2022/03/01 07:44:55;;;;;;;;;6.20;6.20;;;;;;;;5214966;28;8886;-74
2022/03/01 07:47:26;;;;;;;;;7.75;6.50;;;;;;;;5214599;28;9515;-74
2022/03/01 07:49:58;;;;;;;;;5.20;5.20;;;;;;;;5247886;28;11554;-74
2022/03/01 07:52:29;;;;;;;;;18.20;17.20;;;;;;;;5214449;28;8902;-75
2022/03/01 07:55:00;;;;;;;;;16.80;16.80;;;;;;;;5231206;28;8899;-74
2022/03/01 07:57:31;;;;;;;;;19.80;19.00;;;;;;;;5230711;28;8792;-75
2022/03/01 08:00:04;;;;;;;;;40.60;38.60;;;;;;;;5227705;28;8771;-74
2022/03/01 08:02:43;;;;;;;;;34.00;32.00;;;;;;;;5228500;28;8763;-75
2022/03/01 08:05:14;;;;;;;;;40.60;38.60;;;;;;;;5210155;28;8825;-75
2022/03/01 08:07:45;;;;;;;;;41.40;40.60;;;;;;;;5209967;28;9561;-74
2022/03/01 08:10:16;;;;;;;;;45.75;43.75;;;;;;;;5209959;28;8786;-74
2022/03/01 08:12:47;;;;;;;;;46.50;44.25;;;;;;;;5177362;28;11473;-74
2022/03/01 08:15:38;;;;;;;;;50.00;44.80;;;;;;;;5210109;28;8802;-74
2022/03/01 08:18:09;;;;;;;;;63.60;51.60;;;;;;;;5227923;28;8803;-74
2022/03/01 08:20:40;;;;;;;;;33.25;32.50;;;;;;;;5209750;28;8815;-72
2022/03/01 08:23:11;;;;;;;;;12.50;12.50;;;;;;;;5227616;28;9284;-72
2022/03/01 08:25:42;;;;;;;;;4.60;4.20;;;;;;;;5209831;28;10817;-72
2022/03/01 08:28:15;;;;;;;;;2.80;2.80;;;;;;;;5209869;28;8829;-73
2022/03/01 08:30:46;;;;;;;;;6.80;6.80;;;;;;;;5209849;28;8848;-72
2022/03/01 08:33:18;;;;;;;;;5.00;5.00;;;;;;;;5209751;28;8771;-74
2022/03/01 08:35:49;;;;;;;;;7.60;7.60;;;;;;;;5230436;28;8907;-73
2022/03/01 08:38:20;;;;;;;;;5.00;5.00;;;;;;;;5213958;28;8911;-72
2022/03/01 08:40:51;;;;;;;;;6.50;5.00;;;;;;;;5248144;28;8788;-72
2022/03/01 08:43:22;;;;;;;;;1.00;1.00;;;;;;;;5247943;28;8812;-72
2022/03/01 08:45:53;;;;;;;;;2.00;2.00;;;;;;;;5247515;28;9245;-72
2022/03/01 08:48:44;;;;;;;;;7.20;7.20;;;;;;;;5232067;28;8827;-73
2022/03/01 08:51:15;;;;;;;;;2.00;2.00;;;;;;;;5246353;28;8777;-72
2022/03/01 08:53:47;;;;;;;;;11.75;11.75;;;;;;;;5247899;28;8788;-72
2022/03/01 08:56:36;;;;;;;;;20.00;20.00;;;;;;;;5229298;28;8771;-72
2022/03/01 08:59:07;;;;;;;;;4.25;4.25;;;;;;;;5209481;28;8794;-72
2022/03/01 09:01:56;;;;;;;;;4.80;4.80;;;;;;;;5209253;28;8779;-72
2022/03/01 09:04:27;;;;;;;;;5.50;5.50;;;;;;;;5209011;28;8786;-72
2022/03/01 09:06:57;;;;;;;;;1.50;1.50;;;;;;;;5227427;28;8824;-73
2022/03/01 09:09:29;;;;;;;;;1.60;1.60;;;;;;;;5208800;28;8787;-73
2022/03/01 09:12:00;;;;;;;;;10.50;10.50;;;;;;;;5209232;28;8778;-73
2022/03/01 09:14:31;;;;;;;;;11.40;11.40;;;;;;;;5193545;28;11441;-72
2022/03/01 09:17:02;;;;;;;;;9.00;8.00;;;;;;;;5214986;28;8799;-73
2022/03/01 09:19:33;;;;;;;;;3.20;3.20;;;;;;;;5229931;28;8781;-72
2022/03/01 09:22:04;;;;;;;;;11.25;11.25;;;;;;;;5238655;28;9525;-72
2022/03/01 09:24:35;;;;;;;;;8.00;8.00;;;;;;;;5208937;28;11447;-72
2022/03/01 09:27:24;;;;;;;;;8.20;7.80;;;;;;;;5226427;28;8830;-72
2022/03/01 09:29:55;;;;;;;;;7.20;7.20;;;;;;;;5226464;28;8801;-72
2022/03/01 09:32:26;;;;;;;;;2.50;2.50;;;;;;;;5226318;28;8801;-72
2022/03/01 09:34:57;;;;;;;;;6.40;6.40;;;;;;;;5214206;28;11375;-72
2022/03/01 09:37:31;;;;;;;;;25.20;23.60;;;;;;;;5208410;28;8813;-73
2022/03/01 09:40:04;;;;;;;;;39.40;38.80;;;;;;;;5226081;28;8802;-72
2022/03/01 09:42:36;;;;;;;;;19.60;19.60;;;;;;;;5224816;28;9653;-72
2022/03/01 09:45:07;;;;;;;;;15.60;14.20;;;;;;;;5208257;28;8856;-72
2022/03/01 09:47:39;;;;;;;;;11.00;10.60;;;;;;;;5224603;28;8883;-73
2022/03/01 09:50:10;;;;;;;;;6.00;6.00;;;;;;;;5226012;28;8799;-73
2022/03/01 09:53:00;;;;;;;;;6.80;6.80;;;;;;;;5244420;28;8794;-73
2022/03/01 09:55:31;;;;;;;;;6.00;6.00;;;;;;;;5249549;28;9497;-72
2022/03/01 09:58:03;;;;;;;;;6.00;5.40;;;;;;;;5267593;28;8798;-73
2022/03/01 10:00:34;;;;;;;;;11.75;11.50;;;;;;;;5267249;28;9521;-73
2022/03/01 10:03:06;;;;;;;;;9.60;9.60;;;;;;;;5267206;28;9705;-73
2022/03/01 10:05:38;;;;;;;;;9.40;9.40;;;;;;;;5249481;28;8912;-73
2022/03/01 10:08:10;;;;;;;;;12.40;12.00;;;;;;;;5267111;28;8871;-73
2022/03/01 10:10:49;;;;;;;;;5.80;5.60;;;;;;;;5249511;28;8786;-74
2022/03/01 10:13:25;;;;;;;;;8.00;8.00;;;;;;;;5223691;28;8764;-76
2022/03/01 10:16:03;;;;;;;;;7.40;7.40;;;;;;;;5212491;28;9643;-73
2022/03/01 10:18:39;;;;;;;;;4.40;4.20;;;;;;;;5212322;28;8862;-74
2022/03/01 10:21:11;;;;;;;;;4.40;4.40;;;;;;;;5246476;28;8769;-73
2022/03/01 10:24:00;;;;;;;;;5.80;5.80;;;;;;;;5228504;28;9483;-73
2022/03/01 10:26:55;;;;;;;;;6.00;6.00;;;;;;;;5246401;28;8862;-73
2022/03/01 10:29:27;;;;;;;;;6.40;6.40;;;;;;;;5246412;28;8780;-73
2022/03/01 10:32:09;;;;;;;;;5.00;5.00;;;;;;;;5228028;28;9501;-73
2022/03/01 10:34:54;;;;;;;;;5.60;5.60;;;;;;;;5198167;28;8759;-73
2022/03/01 10:37:26;;;;;;;;;5.00;5.00;;;;;;;;5244370;28;9510;-73
2022/03/01 10:40:13;;;;;;;;;8.40;8.40;;;;;;;;5228507;28;8777;-73
2022/03/01 10:42:44;;;;;;;;;9.20;9.20;;;;;;;;5229090;28;8764;-73
2022/03/01 10:45:15;;;;;;;;;18.00;17.20;;;;;;;;5228172;28;8781;-73
2022/03/01 10:47:53;;;;;;;;;21.00;20.00;;;;;;;;5227996;28;8800;-73
2022/03/01 10:50:24;;;;;;;;;19.40;18.80;;;;;;;;5211422;28;8781;-73
2022/03/01 10:52:55;;;;;;;;;24.20;23.40;;;;;;;;5228182;28;8773;-73
2022/03/01 10:55:27;;;;;;;;;12.60;12.60;;;;;;;;5245182;28;8785;-73
2022/03/01 10:57:59;;;;;;;;;21.40;21.40;;;;;;;;5224937;28;8799;-73
2022/03/01 11:00:31;;;;;;;;;26.20;24.40;;;;;;;;5207671;28;8785;-72
2022/03/01 11:03:03;;;;;;;;;24.40;22.40;;;;;;;;5190991;28;8794;-71
2022/03/01 11:05:35;;;;;;;;;18.80;17.80;;;;;;;;5224986;28;8815;-73
2022/03/01 11:08:32;;;;;;;;;12.80;12.00;;;;;;;;5225615;28;8814;-73
2022/03/01 11:11:07;;;;;;;;;6.20;6.20;;;;;;;;5225248;28;8929;-73
2022/03/01 11:13:39;;;;;;;;;10.40;10.40;;;;;;;;5210920;28;8787;-73
2022/03/01 11:16:13;;;;;;;;;12.40;12.40;;;;;;;;5229068;28;8798;-72
2022/03/01 11:19:05;;;;;;;;;14.60;13.80;;;;;;;;5211593;28;8860;-72
2022/03/01 11:21:40;;;;;;;;;14.20;14.20;;;;;;;;5214517;28;8917;-74
2022/03/01 11:24:14;;;;;;;;;10.80;10.80;;;;;;;;5252086;28;8824;-73
2022/03/01 11:26:45;;;;;;;;;24.00;22.60;;;;;;;;5270827;28;8790;-74
2022/03/01 11:29:17;;;;;;;;;22.40;22.40;;;;;;;;5254638;28;8931;-73
2022/03/01 11:31:59;;;;;;;;;14.80;14.00;;;;;;;;5249203;28;9526;-73
2022/03/01 11:34:32;;;;;;;;;14.80;14.80;;;;;;;;5231723;28;8802;-71
2022/03/01 11:37:03;;;;;;;;;11.60;11.60;;;;;;;;5249659;28;8777;-71
2022/03/01 11:39:35;;;;;;;;;17.20;16.00;;;;;;;;5231461;28;8869;-73
2022/03/01 11:42:07;;;;;;;;;8.20;8.20;;;;;;;;5249196;28;8784;-72
2022/03/01 11:44:41;;;;;;;;;8.20;8.20;;;;;;;;5214194;28;8826;-73
2022/03/01 11:47:22;;;;;;;;;5.80;5.80;;;;;;;;5225502;28;8767;-73
2022/03/01 11:49:53;;;;;;;;;9.40;9.00;;;;;;;;5270049;28;9531;-73
2022/03/01 11:52:25;;;;;;;;;20.60;20.60;;;;;;;;5269850;28;8852;-73
2022/03/01 11:54:56;;;;;;;;;29.00;29.00;;;;;;;;5235070;28;8856;-73
2022/03/01 11:57:29;;;;;;;;;14.60;14.60;;;;;;;;5269853;28;8778;-73
2022/03/01 12:00:01;;;;;;;;;9.80;9.80;;;;;;;;5252018;28;8774;-73
2022/03/01 12:02:43;;;;;;;;;11.40;11.40;;;;;;;;5236288;28;8767;-73
2022/03/01 12:05:23;;;;;;;;;11.60;11.60;;;;;;;;5227667;28;8825;-74
2022/03/01 12:08:12;;;;;;;;;18.40;17.80;;;;;;;;5210312;28;8807;-73
2022/03/01 12:11:06;;;;;;;;;8.40;8.40;;;;;;;;5228553;28;8917;-74
2022/03/01 12:13:37;;;;;;;;;7.20;7.20;;;;;;;;5193849;28;8835;-74
2022/03/01 12:16:09;;;;;;;;;9.00;9.00;;;;;;;;5193675;28;8775;-74
2022/03/01 12:18:41;;;;;;;;;21.80;21.80;;;;;;;;5210298;28;8794;-74
2022/03/01 12:21:13;;;;;;;;;18.80;18.60;;;;;;;;5193744;28;9513;-73
2022/03/01 12:23:45;;;;;;;;;18.40;18.00;;;;;;;;5228492;28;8794;-74
2022/03/01 12:26:16;;;;;;;;;13.80;13.00;;;;;;;;5248234;28;8776;-73
2022/03/01 12:28:50;;;;;;;;;12.00;10.00;;;;;;;;5246463;28;8853;-74
2022/03/01 12:31:23;;;;;;;;;8.00;8.00;;;;;;;;5248221;28;8764;-73
2022/03/01 12:34:13;;;;;;;;;43.00;40.80;;;;;;;;5241847;28;8767;-73
2022/03/01 12:36:45;;;;;;;;;45.00;40.50;;;;;;;;5207405;28;8969;-75
2022/03/01 12:39:16;;;;;;;;;37.60;31.60;;;;;;;;5246379;28;8800;-73
2022/03/01 12:41:48;;;;;;;;;17.60;17.20;;;;;;;;5209555;28;8783;-73
2022/03/01 12:44:21;;;;;;;;;6.20;6.20;;;;;;;;5209994;28;8787;-74
2022/03/01 12:46:52;;;;;;;;;12.80;12.80;;;;;;;;5209536;28;8775;-74
2022/03/01 12:49:23;;;;;;;;;59.50;49.00;;;;;;;;5225348;28;8825;-73
2022/03/01 12:51:55;;;;;;;;;53.40;47.00;;;;;;;;5229871;28;8768;-73
2022/03/01 12:54:27;;;;;;;;;27.80;25.00;;;;;;;;5262888;28;8820;-74
2022/03/01 12:57:00;;;;;;;;;18.60;18.00;;;;;;;;5248025;28;8881;-73
2022/03/01 12:59:32;;;;;;;;;15.80;14.40;;;;;;;;5247854;28;8831;-72
2022/03/01 13:02:06;;;;;;;;;12.40;12.40;;;;;;;;5193543;28;8897;-73
2022/03/01 13:04:37;;;;;;;;;14.20;14.20;;;;;;;;5225310;28;8822;-74
2022/03/01 13:07:09;;;;;;;;;11.60;11.60;;;;;;;;5236791;28;8805;-74
2022/03/01 13:09:39;;;;;;;;;7.50;5.25;;;;;;;;5247611;28;8819;-72
2022/03/01 13:12:28;;;;;;;;;16.60;16.60;;;;;;;;5253293;28;11443;-73
2022/03/01 13:14:59;;;;;;;;;22.00;20.75;;;;;;;;5222453;28;8791;-72
2022/03/01 13:17:31;;;;;;;;;18.00;18.00;;;;;;;;5247292;28;11630;-72
2022/03/01 13:20:03;;;;;;;;;23.60;22.80;;;;;;;;5213713;28;8829;-74
2022/03/01 13:22:35;;;;;;;;;16.80;16.80;;;;;;;;5227941;28;8793;-75
2022/03/01 13:25:07;;;;;;;;;23.00;23.00;;;;;;;;5198820;28;9539;-75
2022/03/01 13:27:46;;;;;;;;;20.00;19.00;;;;;;;;5241160;28;8827;-73
2022/03/01 13:30:25;;;;;;;;;25.20;24.60;;;;;;;;5218620;28;9569;-74
2022/03/01 13:33:14;;;;;;;;;42.20;39.60;;;;;;;;5231730;28;8806;-73
2022/03/01 13:35:46;;;;;;;;;41.20;32.80;;;;;;;;5244853;28;9584;-75
2022/03/01 13:38:19;;;;;;;;;26.00;25.40;;;;;;;;5242042;28;8843;-73
2022/03/01 13:40:50;;;;;;;;;16.40;16.40;;;;;;;;5228899;28;8776;-73
2022/03/01 13:43:25;;;;;;;;;33.60;32.40;;;;;;;;5212398;28;8935;-74
2022/03/01 13:46:16;;;;;;;;;66.20;55.00;;;;;;;;5228305;28;8941;-74
2022/03/01 13:48:47;;;;;;;;;91.00;69.40;;;;;;;;5195651;28;8859;-74
2022/03/01 13:51:18;;;;;;;;;62.40;53.00;;;;;;;;5196186;28;8793;-73
2022/03/01 13:53:49;;;;;;;;;17.00;13.60;;;;;;;;5241759;28;8805;-75
2022/03/01 13:56:21;;;;;;;;;90.25;72.00;;;;;;;;5192215;28;8807;-74
2022/03/01 13:58:52;;;;;;;;;112.00;98.75;;;;;;;;5225847;28;9551;-76
2022/03/01 14:01:23;;;;;;;;;112.00;101.67;;;;;;;;5191520;28;8806;-73
2022/03/01 14:04:01;;;;;;;;;92.33;75.67;;;;;;;;5207878;28;8820;-75
2022/03/01 14:06:32;;;;;;;;;74.40;63.00;;;;;;;;5234721;28;10664;-74
2022/03/01 14:09:03;;;;;;;;;57.40;50.20;;;;;;;;5217037;28;8812;-74
2022/03/01 14:11:34;;;;;;;;;50.20;44.20;;;;;;;;5228129;28;8761;-73
2022/03/01 14:14:15;;;;;;;;;32.50;30.75;;;;;;;;5211712;28;8827;-72
2022/03/01 14:16:46;;;;;;;;;44.00;41.60;;;;;;;;5194014;28;11024;-74
2022/03/01 14:19:18;;;;;;;;;54.20;47.40;;;;;;;;5228170;28;8785;-74
2022/03/01 14:21:49;;;;;;;;;64.80;51.60;;;;;;;;5244594;28;8793;-75
2022/03/01 14:24:21;;;;;;;;;67.50;52.00;;;;;;;;5228073;28;8769;-75
2022/03/01 14:26:52;;;;;;;;;59.00;46.20;;;;;;;;5227609;28;8782;-74
2022/03/01 14:29:23;;;;;;;;;79.00;64.20;;;;;;;;5245149;28;8820;-74
2022/03/01 14:31:54;;;;;;;;;83.75;66.75;;;;;;;;5200019;28;8834;-75
2022/03/01 14:34:44;;;;;;;;;87.60;66.60;;;;;;;;5208401;28;10034;-74
2022/03/01 14:37:15;;;;;;;;;85.40;63.20;;;;;;;;5205709;28;8864;-74
2022/03/01 14:39:46;;;;;;;;;86.33;70.00;;;;;;;;5206688;28;8797;-74
2022/03/01 14:42:17;;;;;;;;;90.33;73.33;;;;;;;;5226134;28;11471;-75
2022/03/01 14:44:49;;;;;;;;;94.00;75.50;;;;;;;;5209250;28;8822;-73
2022/03/01 14:47:20;;;;;;;;;90.25;67.25;;;;;;;;5245660;28;8805;-73
2022/03/01 14:49:51;;;;;;;;;112.25;90.75;;;;;;;;5248498;28;10857;-73
2022/03/01 14:52:22;;;;;;;;;76.00;62.00;;;;;;;;5230007;28;8868;-76
2022/03/01 14:54:52;;;;;;;;;79.25;65.00;;;;;;;;5230240;28;8800;-74
2022/03/01 14:57:24;;;;;;;;;77.60;62.00;;;;;;;;5263799;28;8785;-74
2022/03/01 14:59:55;;;;;;;;;66.20;56.20;;;;;;;;5264031;28;8862;-75
2022/03/01 15:02:26;;;;;;;;;60.00;47.50;;;;;;;;5244061;28;8905;-72
2022/03/01 15:04:57;;;;;;;;;34.00;34.00;;;;;;;;5222139;28;11294;-72
2022/03/01 15:07:28;;;;;;;;;19.00;19.00;;;;;;;;5214533;28;8798;-73
2022/03/01 15:09:59;;;;;;;;;37.60;35.80;;;;;;;;5231860;28;8866;-74
2022/03/01 15:12:30;;;;;;;;;42.50;41.25;;;;;;;;5230382;28;8812;-75
2022/03/01 15:15:01;;;;;;;;;45.40;43.00;;;;;;;;5231161;28;10822;-74
2022/03/01 15:17:32;;;;;;;;;43.25;42.25;;;;;;;;5248420;28;8809;-75
2022/03/01 15:20:06;;;;;;;;;72.60;57.60;;;;;;;;5248316;28;8804;-72